Time;durP1;ratioP1;P1;durP2;ratioP2;P2;SDS_P1;SDS_P2;PMS_P1;PMS_P2;Temp;Humidity;BMP_temperature;BMP_pressure;BME280_temperature;BME280_humidity;BME280_pressure;Samples;Min_cycle;Max_cycle;Signal;HPM_P1;HPM_P2
2023/11/28 00:01:36;;;;;;;1.33;1.00;;;2.20;99.90;;;;;;5020561;28;20041;-72
2023/11/28 00:04:02;;;;;;;1.52;0.95;;;2.20;99.90;;;;;;4999659;28;20094;-72
2023/11/28 00:06:28;;;;;;;1.20;0.55;;;2.20;99.90;;;;;;5030417;28;20136;-72
2023/11/28 00:08:53;;;;;;;0.57;0.47;;;2.20;99.90;;;;;;5018943;28;20340;-73
2023/11/28 00:11:21;;;;;;;0.73;0.43;;;2.20;99.90;;;;;;5034411;28;20267;-73
2023/11/28 00:13:48;;;;;;;0.50;0.40;;;2.20;99.90;;;;;;5020792;28;20054;-73
2023/11/28 00:16:14;;;;;;;0.68;0.60;;;2.20;99.90;;;;;;5032565;28;20050;-73
2023/11/28 00:18:39;;;;;;;0.90;0.50;;;2.20;99.90;;;;;;5040192;28;20056;-72
2023/11/28 00:21:06;;;;;;;1.17;0.80;;;2.20;99.90;;;;;;5019072;28;20042;-73
2023/11/28 00:23:31;;;;;;;0.88;0.73;;;2.20;99.90;;;;;;5033848;28;20113;-72
2023/11/28 00:25:57;;;;;;;0.10;0.10;;;2.20;99.90;;;;;;5052561;28;20058;-73
2023/11/28 00:28:25;;;;;;;0.82;0.40;;;2.10;99.90;;;;;;5038614;28;20042;-72
2023/11/28 00:30:54;;;;;;;1.17;0.52;;;2.10;99.90;;;;;;5003918;28;20034;-72
2023/11/28 00:33:20;;;;;;;0.30;0.20;;;2.00;99.90;;;;;;5053916;28;20085;-73
2023/11/28 00:35:46;;;;;;;2.22;1.02;;;1.90;99.90;;;;;;5040855;28;20070;-72
2023/11/28 00:38:12;;;;;;;0.75;0.50;;;1.90;99.90;;;;;;5037560;28;20560;-72
2023/11/28 00:40:40;;;;;;;0.00;0.00;;;1.80;99.90;;;;;;5032888;28;20409;-72
2023/11/28 00:43:05;;;;;;;0.10;0.10;;;1.70;99.90;;;;;;5037025;28;20071;-72
2023/11/28 00:45:31;;;;;;;0.28;0.25;;;1.70;99.90;;;;;;5028869;28;20502;-72
2023/11/28 00:47:57;;;;;;;1.20;0.50;;;1.60;99.90;;;;;;5004921;28;20045;-73
2023/11/28 00:50:23;;;;;;;0.15;0.15;;;1.50;99.90;;;;;;5037181;28;20104;-72
2023/11/28 00:52:49;;;;;;;0.20;0.20;;;1.50;99.90;;;;;;5038023;28;20040;-72
2023/11/28 00:55:15;;;;;;;0.10;0.10;;;1.40;99.90;;;;;;5036301;28;20105;-73
2023/11/28 00:57:44;;;;;;;0.30;0.20;;;1.40;99.90;;;;;;5037742;28;20054;-73
2023/11/28 01:00:12;;;;;;;0.10;0.10;;;1.30;99.90;;;;;;5029505;28;20141;-73
2023/11/28 01:02:38;;;;;;;0.52;0.28;;;1.30;99.90;;;;;;5034270;28;20038;-72
2023/11/28 01:05:05;;;;;;;0.17;0.13;;;1.30;99.90;;;;;;5031275;28;20074;-73
2023/11/28 01:07:31;;;;;;;0.13;0.10;;;1.30;99.90;;;;;;5006894;28;20034;-73
2023/11/28 01:09:57;;;;;;;0.52;0.22;;;1.20;99.90;;;;;;5032414;28;20065;-73
2023/11/28 01:12:23;;;;;;;0.17;0.10;;;1.20;99.90;;;;;;4999319;28;20695;-73
2023/11/28 01:14:49;;;;;;;0.00;0.00;;;1.20;99.90;;;;;;5037140;28;20065;-73
2023/11/28 01:17:14;;;;;;;1.08;0.50;;;1.20;99.90;;;;;;5032451;28;20436;-73
2023/11/28 01:19:40;;;;;;;0.10;0.10;;;1.20;99.90;;;;;;5029057;28;20355;-73
2023/11/28 01:22:11;;;;;;;0.77;0.10;;;1.20;99.90;;;;;;5006518;28;20727;-72
2023/11/28 01:24:37;;;;;;;0.40;0.30;;;1.10;99.90;;;;;;5000817;28;20512;-73
2023/11/28 01:27:04;;;;;;;2.13;0.90;;;1.10;99.90;;;;;;5036806;28;20042;-73
2023/11/28 01:29:30;;;;;;;0.00;0.00;;;1.10;99.90;;;;;;4994671;28;20117;-73
2023/11/28 01:31:56;;;;;;;0.00;0.00;;;1.10;99.90;;;;;;5045174;28;20122;-73
2023/11/28 01:34:22;;;;;;;0.10;0.03;;;1.10;99.90;;;;;;4981678;28;20533;-72
2023/11/28 01:36:49;;;;;;;0.30;0.25;;;1.20;99.90;;;;;;5004136;28;20034;-73
2023/11/28 01:39:15;;;;;;;0.08;0.08;;;1.20;99.90;;;;;;5035816;28;20068;-72
2023/11/28 01:41:42;;;;;;;0.00;0.00;;;1.20;99.90;;;;;;5000593;28;20038;-74
2023/11/28 01:44:08;;;;;;;0.28;0.28;;;1.20;99.90;;;;;;5037272;28;20077;-74
2023/11/28 01:46:35;;;;;;;0.00;0.00;;;1.20;99.90;;;;;;5030838;28;20081;-74
2023/11/28 01:49:05;;;;;;;0.00;0.00;;;1.20;99.90;;;;;;5034537;28;20253;-73
2023/11/28 01:51:31;;;;;;;0.00;0.00;;;1.20;99.90;;;;;;5031746;28;20125;-74
2023/11/28 01:54:01;;;;;;;0.68;0.40;;;1.10;99.90;;;;;;5038190;28;20453;-74
2023/11/28 01:56:28;;;;;;;0.10;0.08;;;1.20;99.90;;;;;;5001474;28;20380;-73
2023/11/28 01:58:54;;;;;;;0.00;0.00;;;1.20;99.90;;;;;;5029800;28;20565;-73
2023/11/28 02:01:21;;;;;;;0.00;0.00;;;1.20;99.90;;;;;;5031012;28;20049;-73
2023/11/28 02:03:51;;;;;;;0.60;0.28;;;1.20;99.90;;;;;;5003865;28;20112;-74
2023/11/28 02:06:17;;;;;;;0.38;0.13;;;1.20;99.90;;;;;;5035137;28;20161;-74
2023/11/28 02:08:44;;;;;;;0.00;0.00;;;1.20;99.90;;;;;;4997191;28;20045;-76
2023/11/28 02:11:10;;;;;;;0.25;0.10;;;1.20;99.90;;;;;;5005402;28;20046;-74
2023/11/28 02:13:36;;;;;;;0.15;0.08;;;1.30;99.90;;;;;;5034904;28;20104;-73
2023/11/28 02:16:13;;;;;;;4.45;0.30;;;1.20;99.90;;;;;;5001320;28;20054;-73
2023/11/28 02:18:42;;;;;;;0.13;0.13;;;1.20;99.90;;;;;;5028845;28;20120;-73
2023/11/28 02:21:09;;;;;;;0.00;0.00;;;1.20;99.90;;;;;;5032008;28;20053;-73
2023/11/28 02:23:35;;;;;;;0.17;0.10;;;1.20;99.90;;;;;;5031353;28;20490;-73
2023/11/28 02:26:15;;;;;;;0.20;0.10;;;1.30;99.90;;;;;;5000566;28;20100;-73
2023/11/28 02:28:41;;;;;;;0.03;0.03;;;1.20;99.90;;;;;;5034555;28;20054;-73
2023/11/28 02:31:07;;;;;;;0.38;0.25;;;1.30;99.90;;;;;;5037310;28;20042;-73
2023/11/28 02:33:33;;;;;;;0.20;0.20;;;1.20;99.90;;;;;;5003954;28;20049;-73
2023/11/28 02:35:58;;;;;;;0.68;0.40;;;1.20;99.90;;;;;;5034986;28;20073;-73
2023/11/28 02:38:24;;;;;;;0.00;0.00;;;1.20;99.90;;;;;;4988394;28;21391;-73
2023/11/28 02:40:50;;;;;;;0.00;0.00;;;1.20;99.90;;;;;;5033162;28;20449;-73
2023/11/28 02:43:18;;;;;;;0.10;0.10;;;1.30;99.90;;;;;;5000590;28;20056;-73
2023/11/28 02:45:45;;;;;;;0.10;0.10;;;1.20;99.90;;;;;;5000051;28;20068;-73
2023/11/28 02:48:11;;;;;;;0.00;0.00;;;1.20;99.90;;;;;;4997598;28;20043;-73
2023/11/28 02:50:37;;;;;;;0.52;0.22;;;1.20;99.90;;;;;;5002774;28;20036;-73
2023/11/28 02:53:04;;;;;;;0.47;0.22;;;1.20;99.90;;;;;;5032574;28;20046;-73
2023/11/28 02:55:29;;;;;;;0.28;0.28;;;1.20;99.90;;;;;;5027646;28;20055;-73
2023/11/28 02:57:59;;;;;;;0.57;0.38;;;1.20;99.90;;;;;;5034318;28;20122;-73
2023/11/28 03:00:25;;;;;;;0.25;0.10;;;1.20;99.90;;;;;;5003744;28;20045;-73
2023/11/28 03:02:51;;;;;;;0.05;0.05;;;1.20;99.90;;;;;;5000902;28;20494;-74
2023/11/28 03:05:16;;;;;;;0.10;0.10;;;1.10;99.90;;;;;;5028102;28;20096;-73
2023/11/28 03:07:42;;;;;;;0.10;0.10;;;1.10;99.90;;;;;;5031550;28;20475;-74
2023/11/28 03:10:08;;;;;;;0.00;0.00;;;1.20;99.90;;;;;;5032696;28;20129;-73
2023/11/28 03:12:35;;;;;;;0.05;0.05;;;1.10;99.90;;;;;;5034051;28;20132;-73
2023/11/28 03:15:01;;;;;;;0.00;0.00;;;1.20;99.90;;;;;;5000149;28;20148;-73
2023/11/28 03:17:27;;;;;;;0.35;0.10;;;1.10;99.90;;;;;;5016941;28;20564;-73
2023/11/28 03:19:53;;;;;;;0.52;0.20;;;1.10;99.90;;;;;;5028463;28;20393;-73
2023/11/28 03:22:19;;;;;;;0.10;0.10;;;1.10;99.90;;;;;;5032444;28;20034;-73
2023/11/28 03:24:46;;;;;;;0.50;0.38;;;1.20;99.90;;;;;;4997373;28;20057;-73
2023/11/28 03:27:17;;;;;;;0.40;0.28;;;1.20;99.90;;;;;;5020690;28;20502;-73
2023/11/28 03:29:43;;;;;;;0.17;0.10;;;1.20;99.90;;;;;;5004062;28;20065;-73
2023/11/28 03:32:09;;;;;;;0.05;0.05;;;1.20;99.90;;;;;;5000785;28;20040;-73
2023/11/28 03:34:36;;;;;;;2.17;0.22;;;1.20;99.90;;;;;;5032973;28;20409;-73
2023/11/28 03:37:01;;;;;;;0.30;0.20;;;1.20;99.90;;;;;;5028383;28;20048;-73
2023/11/28 03:39:27;;;;;;;0.00;0.00;;;1.20;99.90;;;;;;5003295;28;20042;-73
2023/11/28 03:41:53;;;;;;;0.10;0.05;;;1.20;99.90;;;;;;4999150;28;20038;-73
2023/11/28 03:44:18;;;;;;;0.32;0.25;;;1.20;99.90;;;;;;5023883;28;20046;-73
2023/11/28 03:46:47;;;;;;;0.90;0.60;;;1.20;99.90;;;;;;5029260;28;20078;-73
2023/11/28 03:49:13;;;;;;;0.73;0.57;;;1.20;99.90;;;;;;4999259;28;20034;-73
2023/11/28 03:51:39;;;;;;;0.52;0.20;;;1.20;99.90;;;;;;5030105;28;20093;-73
2023/11/28 03:54:05;;;;;;;0.10;0.05;;;1.20;99.90;;;;;;5002630;28;20108;-73
2023/11/28 03:56:31;;;;;;;0.10;0.10;;;1.30;99.90;;;;;;5032512;28;20048;-73
2023/11/28 03:58:57;;;;;;;0.10;0.10;;;1.30;99.90;;;;;;5035728;28;20146;-73
2023/11/28 04:01:23;;;;;;;0.17;0.10;;;1.30;99.90;;;;;;5036305;28;20137;-73
2023/11/28 04:03:48;;;;;;;0.38;0.35;;;1.30;99.90;;;;;;5001586;28;20490;-73
2023/11/28 04:06:14;;;;;;;0.47;0.40;;;1.20;99.90;;;;;;5016821;28;20128;-73
2023/11/28 04:08:40;;;;;;;0.10;0.10;;;1.30;99.90;;;;;;5004614;28;20124;-73
2023/11/28 04:11:06;;;;;;;0.25;0.25;;;1.30;99.90;;;;;;5043567;28;20089;-73
2023/11/28 04:13:32;;;;;;;0.38;0.30;;;1.30;99.90;;;;;;5038158;28;20066;-74
2023/11/28 04:15:58;;;;;;;0.17;0.17;;;1.30;99.90;;;;;;5023740;28;20038;-73
2023/11/28 04:18:24;;;;;;;0.50;0.47;;;1.40;99.90;;;;;;5034697;28;20046;-73
2023/11/28 04:20:50;;;;;;;0.55;0.50;;;1.40;99.90;;;;;;5006429;28;20613;-73
2023/11/28 04:23:15;;;;;;;0.45;0.32;;;1.60;99.90;;;;;;5006802;28;20464;-73
2023/11/28 04:25:42;;;;;;;0.15;0.15;;;1.60;99.90;;;;;;5029013;28;20457;-73
2023/11/28 04:28:08;;;;;;;0.20;0.20;;;1.70;99.90;;;;;;5051397;28;20129;-73
2023/11/28 04:30:33;;;;;;;0.20;0.13;;;1.70;99.90;;;;;;5041238;28;20458;-73
2023/11/28 04:32:59;;;;;;;0.00;0.00;;;1.80;99.90;;;;;;5032681;28;20533;-73
2023/11/28 04:35:25;;;;;;;0.20;0.13;;;1.80;99.90;;;;;;5006306;28;20137;-73
2023/11/28 04:37:50;;;;;;;0.32;0.25;;;1.80;99.90;;;;;;5006688;28;20038;-73
2023/11/28 04:40:16;;;;;;;0.50;0.20;;;1.90;99.90;;;;;;5005459;28;20030;-73
2023/11/28 04:42:42;;;;;;;0.10;0.10;;;2.00;99.90;;;;;;5033421;28;20038;-73
2023/11/28 04:45:11;;;;;;;0.10;0.03;;;2.00;99.90;;;;;;5024879;28;20034;-73
2023/11/28 04:47:37;;;;;;;0.00;0.00;;;2.00;99.90;;;;;;5007993;28;20041;-73
2023/11/28 04:50:04;;;;;;;0.57;0.32;;;2.10;99.90;;;;;;5030468;28;20046;-73
2023/11/28 04:52:30;;;;;;;0.03;0.03;;;2.10;99.90;;;;;;5034585;28;20115;-73
2023/11/28 04:54:56;;;;;;;0.32;0.22;;;2.10;99.90;;;;;;5035263;28;20038;-73
2023/11/28 04:57:21;;;;;;;0.10;0.10;;;2.10;99.90;;;;;;5042269;28;20029;-73
2023/11/28 04:59:47;;;;;;;0.38;0.38;;;2.10;99.90;;;;;;5027647;28;20065;-73
2023/11/28 05:02:13;;;;;;;0.05;0.05;;;2.10;99.90;;;;;;5003727;28;20041;-73
2023/11/28 05:04:38;;;;;;;0.95;0.85;;;2.10;99.90;;;;;;5002674;28;20041;-73
2023/11/28 05:07:04;;;;;;;0.00;0.00;;;2.10;99.90;;;;;;5025915;28;20535;-73
2023/11/28 05:09:30;;;;;;;5.50;0.65;;;2.10;99.90;;;;;;5016125;28;20053;-73
2023/11/28 05:11:55;;;;;;;1.13;0.85;;;2.00;99.90;;;;;;5021234;28;20079;-73
2023/11/28 05:14:21;;;;;;;0.00;0.00;;;2.10;99.90;;;;;;5036206;28;20120;-73
2023/11/28 05:16:47;;;;;;;0.80;0.20;;;2.00;99.90;;;;;;5035592;28;20030;-73
2023/11/28 05:19:14;;;;;;;0.10;0.10;;;2.00;99.90;;;;;;5040668;28;20179;-73
2023/11/28 05:21:40;;;;;;;0.15;0.15;;;2.00;99.90;;;;;;5036866;28;20042;-73
2023/11/28 05:24:06;;;;;;;0.85;0.40;;;2.00;99.90;;;;;;5034913;28;20053;-73
2023/11/28 05:26:32;;;;;;;0.30;0.30;;;1.90;99.90;;;;;;5006557;28;20045;-73
2023/11/28 05:28:57;;;;;;;0.98;0.38;;;2.00;99.90;;;;;;5031274;28;20486;-73
2023/11/28 05:31:23;;;;;;;7.85;0.82;;;1.90;99.90;;;;;;5034294;28;20477;-73
2023/11/28 05:33:49;;;;;;;1.02;0.50;;;1.90;99.90;;;;;;5003325;28;20490;-73
2023/11/28 05:36:14;;;;;;;0.55;0.40;;;1.90;99.90;;;;;;5033759;28;20427;-73
2023/11/28 05:38:40;;;;;;;0.17;0.10;;;1.90;99.90;;;;;;5036422;28;20081;-73
2023/11/28 05:41:07;;;;;;;0.30;0.30;;;1.90;99.90;;;;;;5040874;28;20046;-73
2023/11/28 05:43:33;;;;;;;0.55;0.35;;;1.80;99.90;;;;;;5040747;28;20041;-73
2023/11/28 05:46:01;;;;;;;0.10;0.10;;;1.80;99.90;;;;;;5003118;28;20406;-73
2023/11/28 05:48:27;;;;;;;0.68;0.60;;;1.80;99.90;;;;;;5035154;28;20130;-74
2023/11/28 05:50:53;;;;;;;0.68;0.60;;;1.80;99.90;;;;;;5035101;28;20069;-73
2023/11/28 05:53:19;;;;;;;0.28;0.03;;;1.70;99.90;;;;;;5023361;28;20045;-73
2023/11/28 05:55:48;;;;;;;0.25;0.10;;;1.80;99.90;;;;;;5002310;28;20041;-73
2023/11/28 05:58:14;;;;;;;0.22;0.22;;;1.80;99.90;;;;;;5036493;28;20065;-73
2023/11/28 06:00:41;;;;;;;0.68;0.68;;;1.80;99.90;;;;;;5054494;28;20068;-74
2023/11/28 06:03:07;;;;;;;0.30;0.30;;;1.80;99.90;;;;;;5037271;28;20040;-73
2023/11/28 06:05:34;;;;;;;3.47;0.80;;;1.90;99.90;;;;;;5034383;28;20136;-73
2023/11/28 06:08:00;;;;;;;0.30;0.30;;;1.80;99.90;;;;;;5001945;28;20037;-73
2023/11/28 06:10:27;;;;;;;0.30;0.30;;;1.80;99.90;;;;;;4993155;28;20038;-73
2023/11/28 06:12:56;;;;;;;0.22;0.22;;;1.80;99.90;;;;;;5036217;28;20168;-73
2023/11/28 06:15:21;;;;;;;0.50;0.40;;;1.80;99.90;;;;;;5036231;28;20053;-73
2023/11/28 06:17:47;;;;;;;0.40;0.40;;;1.80;99.90;;;;;;5031727;28;20145;-73
2023/11/28 06:20:14;;;;;;;0.65;0.30;;;1.80;99.90;;;;;;5022359;28;20042;-73
2023/11/28 06:22:42;;;;;;;0.35;0.25;;;1.80;99.90;;;;;;5004842;28;20042;-73
2023/11/28 06:25:09;;;;;;;0.40;0.08;;;1.80;99.90;;;;;;5004256;28;20584;-73
2023/11/28 06:27:35;;;;;;;0.30;0.10;;;1.80;99.90;;;;;;5031619;28;20121;-74
2023/11/28 06:30:00;;;;;;;0.25;0.20;;;1.80;99.90;;;;;;5037566;28;20149;-73
2023/11/28 06:32:26;;;;;;;2.55;0.50;;;1.80;99.90;;;;;;5035260;28;20034;-73
2023/11/28 06:34:52;;;;;;;0.40;0.40;;;1.80;99.90;;;;;;5033659;28;20391;-73
2023/11/28 06:37:18;;;;;;;2.22;0.60;;;1.90;99.90;;;;;;5032763;28;20048;-73
2023/11/28 06:39:45;;;;;;;1.25;0.32;;;1.90;99.90;;;;;;5035731;28;20038;-73
2023/11/28 06:42:11;;;;;;;0.43;0.30;;;1.80;99.90;;;;;;5002203;28;20046;-73
2023/11/28 06:44:37;;;;;;;1.27;0.73;;;1.90;99.90;;;;;;5036285;28;20135;-73
2023/11/28 06:47:03;;;;;;;0.55;0.40;;;1.80;99.90;;;;;;4998668;28;20038;-73
2023/11/28 06:49:28;;;;;;;2.17;0.47;;;1.80;99.90;;;;;;5001796;28;20501;-73
2023/11/28 06:51:54;;;;;;;1.38;0.50;;;1.80;99.90;;;;;;5004100;28;20042;-73
2023/11/28 06:54:20;;;;;;;1.35;0.50;;;1.80;99.90;;;;;;5031681;28;20034;-73
2023/11/28 06:56:45;;;;;;;0.65;0.20;;;1.80;99.90;;;;;;5014682;28;20038;-73
2023/11/28 06:59:11;;;;;;;0.40;0.28;;;1.80;99.90;;;;;;5035249;28;20037;-73
2023/11/28 07:01:40;;;;;;;0.50;0.08;;;1.80;99.90;;;;;;5003165;28;20465;-73
2023/11/28 07:04:06;;;;;;;0.43;0.30;;;1.80;99.90;;;;;;5030827;28;20452;-73
2023/11/28 07:06:32;;;;;;;0.65;0.55;;;1.80;99.90;;;;;;5006642;28;20037;-73
2023/11/28 07:08:58;;;;;;;0.35;0.20;;;1.80;99.90;;;;;;5021044;28;20568;-73
2023/11/28 07:11:24;;;;;;;0.10;0.10;;;1.80;99.90;;;;;;5034081;28;20529;-72
2023/11/28 07:13:50;;;;;;;0.95;0.52;;;1.70;99.90;;;;;;5027187;28;20050;-73
2023/11/28 07:16:17;;;;;;;0.50;0.30;;;1.70;99.90;;;;;;4996389;28;20405;-72
2023/11/28 07:18:44;;;;;;;1.05;0.50;;;1.80;99.90;;;;;;5005783;28;20260;-72
2023/11/28 07:21:10;;;;;;;0.20;0.20;;;1.70;99.90;;;;;;5001270;28;20041;-72
2023/11/28 07:23:37;;;;;;;0.43;0.20;;;1.80;99.90;;;;;;5000819;28;20041;-71
2023/11/28 07:26:04;;;;;;;0.17;0.10;;;1.80;99.90;;;;;;5034361;28;20042;-72
2023/11/28 07:28:30;;;;;;;2.05;0.82;;;1.80;99.90;;;;;;5036305;28;20045;-72
2023/11/28 07:30:56;;;;;;;1.15;0.50;;;1.80;99.90;;;;;;5050867;28;20468;-72
2023/11/28 07:33:22;;;;;;;2.13;0.63;;;1.90;99.90;;;;;;5028667;28;20042;-72
2023/11/28 07:35:49;;;;;;;0.50;0.35;;;1.80;99.90;;;;;;5034116;28;20498;-72
2023/11/28 07:38:15;;;;;;;0.65;0.00;;;1.90;99.90;;;;;;5033851;28;20533;-73
2023/11/28 07:40:41;;;;;;;4.28;0.75;;;1.80;99.90;;;;;;5030205;28;20088;-73
2023/11/28 07:43:08;;;;;;;0.85;0.60;;;1.80;99.90;;;;;;5024695;28;20049;-72
2023/11/28 07:45:35;;;;;;;0.63;0.30;;;1.80;99.90;;;;;;5032480;28;20121;-73
2023/11/28 07:48:04;;;;;;;0.10;0.10;;;1.80;99.90;;;;;;5005058;28;20077;-73
2023/11/28 07:50:29;;;;;;;6.85;0.45;;;1.90;99.90;;;;;;5033456;28;20049;-73
2023/11/28 07:52:55;;;;;;;0.95;0.35;;;1.90;99.90;;;;;;5021629;28;20037;-72
2023/11/28 07:55:21;;;;;;;0.38;0.30;;;1.90;99.90;;;;;;5003717;28;20045;-72
2023/11/28 07:57:47;;;;;;;0.98;0.38;;;1.90;99.90;;;;;;5007207;28;20038;-72
2023/11/28 08:00:13;;;;;;;1.20;0.52;;;1.90;99.90;;;;;;5004970;28;20081;-72
2023/11/28 08:02:39;;;;;;;0.68;0.65;;;1.90;99.90;;;;;;5036067;28;20514;-74
2023/11/28 08:05:05;;;;;;;1.45;0.57;;;1.90;99.90;;;;;;5005420;28;20065;-72
2023/11/28 08:07:32;;;;;;;0.43;0.20;;;1.90;99.90;;;;;;5039146;28;20125;-73
2023/11/28 08:10:02;;;;;;;0.50;0.30;;;1.90;99.90;;;;;;5033584;28;20037;-73
2023/11/28 08:12:28;;;;;;;0.73;0.43;;;2.00;99.90;;;;;;5005065;28;20438;-73
2023/11/28 08:14:57;;;;;;;0.38;0.28;;;2.00;99.90;;;;;;5035089;28;20076;-73
2023/11/28 08:17:23;;;;;;;0.90;0.55;;;2.10;99.90;;;;;;5004082;28;20044;-73
2023/11/28 08:19:50;;;;;;;7.13;0.85;;;2.10;99.90;;;;;;5030330;28;20043;-73
2023/11/28 08:22:17;;;;;;;0.60;0.40;;;2.10;99.90;;;;;;5036333;28;20041;-73
2023/11/28 08:24:43;;;;;;;0.90;0.30;;;2.10;99.90;;;;;;5036532;28;20474;-72
2023/11/28 08:27:09;;;;;;;0.30;0.20;;;2.20;99.90;;;;;;5008822;28;20045;-73
2023/11/28 08:29:35;;;;;;;0.25;0.22;;;2.20;99.90;;;;;;5012418;28;20422;-72
2023/11/28 08:32:01;;;;;;;0.63;0.20;;;2.30;99.90;;;;;;5006365;28;20037;-72
2023/11/28 08:34:27;;;;;;;2.55;0.50;;;2.30;99.90;;;;;;5041834;28;20690;-73
2023/11/28 08:36:52;;;;;;;0.20;0.20;;;2.40;99.90;;;;;;5020696;28;20049;-73
2023/11/28 08:39:18;;;;;;;2.50;1.08;;;2.40;99.90;;;;;;5035555;28;20072;-73
2023/11/28 08:41:44;;;;;;;0.95;0.28;;;2.40;99.90;;;;;;5034370;28;20042;-73
2023/11/28 08:44:10;;;;;;;0.38;0.30;;;2.50;99.90;;;;;;5004160;28;20053;-72
2023/11/28 08:46:37;;;;;;;0.60;0.35;;;2.60;99.90;;;;;;5034677;28;20053;-73
2023/11/28 08:49:06;;;;;;;0.68;0.32;;;2.60;99.90;;;;;;5019491;28;20046;-73
2023/11/28 08:51:32;;;;;;;0.90;0.43;;;2.60;99.90;;;;;;5003085;28;20506;-72
2023/11/28 08:53:57;;;;;;;1.55;0.47;;;2.60;99.90;;;;;;5036657;28;20039;-73
2023/11/28 08:56:24;;;;;;;1.65;0.50;;;2.60;99.90;;;;;;5031869;28;20037;-73
2023/11/28 08:58:50;;;;;;;0.55;0.40;;;2.50;99.90;;;;;;5037897;28;20121;-73
2023/11/28 09:01:16;;;;;;;0.28;0.22;;;2.40;99.90;;;;;;5034187;28;20050;-73
2023/11/28 09:03:42;;;;;;;0.85;0.50;;;2.40;99.90;;;;;;5038162;28;20045;-73
2023/11/28 09:06:08;;;;;;;1.33;0.57;;;2.40;99.90;;;;;;4999299;28;20042;-73
2023/11/28 09:08:35;;;;;;;0.47;0.30;;;2.30;99.90;;;;;;5033608;28;20168;-73
2023/11/28 09:11:02;;;;;;;1.02;0.60;;;2.30;99.90;;;;;;5008047;28;20034;-73
2023/11/28 09:13:29;;;;;;;0.30;0.28;;;2.30;99.90;;;;;;5036009;28;20065;-73
2023/11/28 09:15:55;;;;;;;0.57;0.20;;;2.30;99.90;;;;;;5039064;28;20053;-73
2023/11/28 09:18:21;;;;;;;0.80;0.32;;;2.20;99.90;;;;;;5001807;28;20224;-73
2023/11/28 09:20:47;;;;;;;1.10;0.50;;;2.20;99.90;;;;;;5038694;28;20441;-73
2023/11/28 09:23:14;;;;;;;6.85;0.45;;;2.20;99.90;;;;;;5038812;28;20197;-73
2023/11/28 09:25:39;;;;;;;1.00;0.55;;;2.20;99.90;;;;;;5038896;28;20080;-73
2023/11/28 09:28:05;;;;;;;1.42;0.55;;;2.30;99.90;;;;;;5017729;28;20046;-73
2023/11/28 09:30:32;;;;;;;0.13;0.10;;;2.30;99.90;;;;;;5035441;28;20042;-73
2023/11/28 09:32:58;;;;;;;0.50;0.50;;;2.40;99.90;;;;;;5052307;28;20089;-73
2023/11/28 09:35:23;;;;;;;0.32;0.17;;;2.60;99.90;;;;;;5035992;28;20050;-73
2023/11/28 09:37:49;;;;;;;1.17;0.30;;;2.70;99.90;;;;;;5035338;28;20041;-73
2023/11/28 09:40:15;;;;;;;0.80;0.50;;;2.80;99.90;;;;;;5038266;28;20048;-73
2023/11/28 09:42:42;;;;;;;1.52;0.50;;;2.90;99.90;;;;;;5040944;28;20450;-73
2023/11/28 09:45:08;;;;;;;0.63;0.45;;;2.80;99.90;;;;;;5000098;28;20120;-73
2023/11/28 09:47:38;;;;;;;1.48;0.77;;;2.80;99.90;;;;;;5033034;28;20489;-73
2023/11/28 09:50:12;;;;;;;3.03;0.90;;;2.90;99.90;;;;;;5036180;28;20369;-73
2023/11/28 09:52:42;;;;;;;1.15;0.60;;;3.00;99.90;;;;;;5036709;28;20362;-73
2023/11/28 09:55:09;;;;;;;0.77;0.57;;;3.10;99.90;;;;;;4994867;28;20049;-73
2023/11/28 09:57:40;;;;;;;0.47;0.28;;;3.20;99.90;;;;;;5018152;28;20131;-72
2023/11/28 10:00:10;;;;;;;0.35;0.13;;;3.40;99.90;;;;;;5002054;28;20042;-72
2023/11/28 10:02:36;;;;;;;0.75;0.43;;;3.40;99.90;;;;;;5037754;28;20060;-72
2023/11/28 10:05:03;;;;;;;0.82;0.47;;;3.40;99.90;;;;;;5049181;28;20050;-72
2023/11/28 10:07:33;;;;;;;1.05;0.70;;;3.40;99.90;;;;;;5003576;28;20057;-72
2023/11/28 10:10:00;;;;;;;0.38;0.30;;;3.40;99.90;;;;;;4999234;28;20065;-72
2023/11/28 10:12:29;;;;;;;0.57;0.30;;;3.30;99.90;;;;;;5004149;28;20113;-72
2023/11/28 10:14:55;;;;;;;0.85;0.40;;;3.30;99.90;;;;;;5011932;28;20140;-72
2023/11/28 10:17:20;;;;;;;0.47;0.25;;;3.30;99.90;;;;;;5034788;28;20550;-72
2023/11/28 10:19:46;;;;;;;0.38;0.35;;;3.30;99.90;;;;;;5034542;28;20050;-72
2023/11/28 10:22:13;;;;;;;0.43;0.40;;;3.20;99.90;;;;;;5032747;28;20046;-73
2023/11/28 10:24:40;;;;;;;0.30;0.10;;;3.20;99.90;;;;;;5028193;28;20049;-72
2023/11/28 10:27:05;;;;;;;0.25;0.20;;;3.10;99.90;;;;;;5003767;28;20053;-72
2023/11/28 10:29:34;;;;;;;1.70;0.60;;;3.00;99.90;;;;;;5001314;28;20418;-72
2023/11/28 10:32:01;;;;;;;0.45;0.20;;;3.00;99.90;;;;;;5032149;28;20041;-72
2023/11/28 10:34:28;;;;;;;0.17;0.17;;;3.00;99.90;;;;;;5001908;28;20041;-72
2023/11/28 10:36:58;;;;;;;0.73;0.40;;;3.10;99.90;;;;;;5002053;28;20112;-72
2023/11/28 10:39:25;;;;;;;0.30;0.30;;;3.20;99.90;;;;;;4999699;28;20516;-72
2023/11/28 10:41:51;;;;;;;0.15;0.15;;;3.30;99.90;;;;;;5032618;28;20048;-72
2023/11/28 10:44:17;;;;;;;1.05;0.50;;;3.20;99.90;;;;;;5003188;28;20402;-72
2023/11/28 10:46:43;;;;;;;0.35;0.30;;;3.30;99.90;;;;;;5030799;28;20417;-71
2023/11/28 10:49:08;;;;;;;1.02;0.17;;;3.30;99.90;;;;;;5031556;28;20450;-72
2023/11/28 10:51:35;;;;;;;0.25;0.25;;;3.40;99.90;;;;;;5019907;28;20034;-72
2023/11/28 10:54:07;;;;;;;6.57;0.68;;;3.50;99.90;;;;;;5003767;28;20045;-71
2023/11/28 10:56:46;;;;;;;0.63;0.45;;;3.50;99.90;;;;;;5005314;28;20041;-72
2023/11/28 10:59:26;;;;;;;0.60;0.40;;;3.60;99.90;;;;;;5020798;28;20042;-71
2023/11/28 11:01:52;;;;;;;0.13;0.10;;;3.60;99.90;;;;;;5033916;28;20129;-72
2023/11/28 11:04:18;;;;;;;1.38;0.60;;;3.60;99.90;;;;;;5005482;28;20389;-71
2023/11/28 11:06:44;;;;;;;0.35;0.20;;;3.50;99.90;;;;;;5000541;28;20042;-71
2023/11/28 11:09:11;;;;;;;0.40;0.25;;;3.50;99.90;;;;;;5005165;28;20046;-71
2023/11/28 11:11:39;;;;;;;1.25;0.88;;;3.40;99.90;;;;;;5032526;28;20057;-72
2023/11/28 11:14:22;;;;;;;0.63;0.40;;;3.40;99.90;;;;;;5006211;28;20054;-72
2023/11/28 11:17:14;;;;;;;0.03;0.03;;;3.30;99.90;;;;;;5038065;28;20046;-72
2023/11/28 11:19:42;;;;;;;0.98;0.20;;;3.30;99.90;;;;;;5002578;28;20042;-71
2023/11/28 11:22:10;;;;;;;0.70;0.40;;;3.20;99.90;;;;;;5036780;28;20050;-72
2023/11/28 11:24:36;;;;;;;0.47;0.30;;;3.20;99.90;;;;;;5008984;28;20567;-72
2023/11/28 11:27:02;;;;;;;0.40;0.25;;;3.20;99.90;;;;;;5044604;28;20070;-72
2023/11/28 11:29:28;;;;;;;0.50;0.30;;;3.30;99.90;;;;;;5043802;28;20046;-72
2023/11/28 11:31:58;;;;;;;0.10;0.10;;;3.40;99.90;;;;;;5021668;28;20041;-72
2023/11/28 11:34:46;;;;;;;0.35;0.15;;;3.40;99.90;;;;;;5042159;28;20034;-72
2023/11/28 11:37:17;;;;;;;1.33;0.30;;;3.40;99.90;;;;;;5041934;28;20045;-72
2023/11/28 11:39:45;;;;;;;0.20;0.20;;;3.40;99.90;;;;;;5005192;28;20046;-72
2023/11/28 11:42:17;;;;;;;0.10;0.10;;;3.50;99.90;;;;;;5020452;28;20049;-71
2023/11/28 11:44:49;;;;;;;0.30;0.25;;;3.50;99.90;;;;;;5007850;28;20394;-72
2023/11/28 11:47:16;;;;;;;0.40;0.22;;;3.50;99.90;;;;;;5040543;28;20054;-72
2023/11/28 11:49:43;;;;;;;0.25;0.20;;;3.50;99.90;;;;;;5040595;28;20124;-72
2023/11/28 11:52:14;;;;;;;0.00;0.00;;;3.40;99.90;;;;;;5034013;28;20052;-71
2023/11/28 11:54:41;;;;;;;0.50;0.20;;;3.50;99.90;;;;;;5043196;28;20038;-72
2023/11/28 11:57:07;;;;;;;0.20;0.10;;;3.40;99.90;;;;;;5057371;28;20034;-72
2023/11/28 11:59:33;;;;;;;0.17;0.15;;;3.50;99.90;;;;;;5005798;28;20169;-72
2023/11/28 12:02:01;;;;;;;0.32;0.20;;;3.40;99.90;;;;;;5006423;28;20121;-72
2023/11/28 12:04:31;;;;;;;2.33;0.28;;;3.40;99.90;;;;;;5045720;28;20498;-72
2023/11/28 12:07:06;;;;;;;0.40;0.40;;;3.40;99.90;;;;;;5007162;28;20398;-72
2023/11/28 12:09:33;;;;;;;0.28;0.22;;;3.30;99.90;;;;;;5033263;28;20042;-71
2023/11/28 12:11:58;;;;;;;0.55;0.52;;;3.20;99.90;;;;;;5023512;28;20038;-72
2023/11/28 12:14:24;;;;;;;0.20;0.20;;;3.20;99.90;;;;;;5042319;28;20468;-72
2023/11/28 12:16:53;;;;;;;0.70;0.20;;;3.10;99.90;;;;;;5037005;28;20317;-72
2023/11/28 12:19:19;;;;;;;0.10;0.10;;;3.10;99.90;;;;;;5001385;28;20034;-72
2023/11/28 12:21:46;;;;;;;0.30;0.30;;;3.00;99.90;;;;;;5007219;28;20038;-72
2023/11/28 12:24:12;;;;;;;0.32;0.20;;;3.00;99.90;;;;;;5006009;28;20115;-72
2023/11/28 12:26:40;;;;;;;0.40;0.10;;;2.90;99.90;;;;;;5034857;28;20052;-72
2023/11/28 12:29:06;;;;;;;2.10;0.40;;;2.90;99.90;;;;;;5025965;28;20145;-72
2023/11/28 12:31:35;;;;;;;1.15;0.40;;;3.00;99.90;;;;;;5035296;28;20124;-72
2023/11/28 12:34:01;;;;;;;0.30;0.20;;;3.10;99.90;;;;;;5006104;28;20042;-72
2023/11/28 12:36:27;;;;;;;0.20;0.20;;;3.10;99.90;;;;;;5002998;28;20045;-72
2023/11/28 12:39:01;;;;;;;0.17;0.08;;;3.10;99.90;;;;;;5039608;28;20042;-72
2023/11/28 12:41:38;;;;;;;0.93;0.20;;;3.00;99.90;;;;;;5022695;28;20046;-72
2023/11/28 12:44:13;;;;;;;1.23;0.30;;;3.00;99.90;;;;;;5036617;28;20049;-72
2023/11/28 12:46:40;;;;;;;0.50;0.50;;;3.00;99.90;;;;;;5027272;28;20076;-71
2023/11/28 12:49:07;;;;;;;0.32;0.20;;;2.90;99.90;;;;;;5022444;28;20045;-72
2023/11/28 12:51:33;;;;;;;0.45;0.25;;;2.90;99.90;;;;;;5006152;28;20050;-72
2023/11/28 12:54:05;;;;;;;1.10;0.57;;;2.90;99.90;;;;;;5006489;28;20034;-71
2023/11/28 12:56:55;;;;;;;0.57;0.10;;;2.90;99.90;;;;;;5029346;28;20042;-72